createdAt,value
2019-01-16T00:00:30.121Z,56.94
2019-01-16T00:03:11.879Z,58.12
2019-01-16T00:05:59.623Z,59.12
2019-01-16T00:08:37.099Z,59.54
2019-01-16T00:11:14.379Z,59.54
2019-01-16T00:14:02.046Z,59.68
2019-01-16T00:16:38.275Z,59.36
2019-01-16T00:19:25.640Z,59.68
2019-01-16T00:22:08.944Z,60.08
2019-01-16T00:24:52.151Z,59.37
2019-01-16T00:27:38.096Z,59.34
2019-01-16T00:30:18.315Z,59.48
2019-01-16T00:32:52.476Z,59.27
2019-01-16T00:35:23.811Z,58.67
2019-01-16T00:37:58.742Z,58.38
2019-01-16T00:40:42.215Z,58.23
2019-01-16T00:43:14.587Z,58.99
2019-01-16T00:45:55.301Z,60.78
2019-01-16T00:48:38.609Z,61.55
2019-01-16T00:51:29.863Z,62.33
2019-01-16T00:54:04.533Z,62.57
2019-01-16T00:56:50.831Z,61.57
2019-01-16T00:59:26.901Z,61.13
2019-01-16T01:02:14.115Z,60.27
2019-01-16T01:04:54.964Z,59.73
2019-01-16T01:07:37.987Z,59.67
2019-01-16T01:10:20.207Z,60.34
2019-01-16T01:13:03.623Z,61.46
2019-01-16T01:15:40.797Z,60.70
2019-01-16T01:18:15.085Z,60.18
2019-01-16T01:20:46.562Z,59.64
2019-01-16T01:23:26.683Z,59.68
2019-01-16T01:26:14.233Z,60.38
2019-01-16T01:28:45.549Z,60.72
2019-01-16T01:31:25.827Z,61.02
2019-01-16T01:33:57.169Z,60.86
2019-01-16T01:36:49.711Z,61.26
2019-01-16T01:39:32.420Z,60.90
2019-01-16T01:42:06.840Z,60.19
2019-01-16T01:44:57.229Z,60.81
2019-01-16T01:47:37.558Z,60.94
2019-01-16T01:50:13.783Z,60.81
2019-01-16T01:53:01.238Z,59.71
2019-01-16T01:55:44.696Z,58.87
2019-01-16T01:58:21.934Z,59.81
2019-01-16T02:01:02.241Z,60.52
2019-01-16T02:03:43.687Z,61.25
2019-01-16T02:06:32.500Z,62.19
2019-01-16T02:09:17.130Z,62.90
2019-01-16T02:11:50.160Z,62.12
2019-01-16T02:14:22.306Z,62.23
2019-01-16T02:17:14.811Z,62.87
2019-01-16T02:19:49.148Z,62.82
2019-01-16T02:22:22.274Z,62.72
2019-01-16T02:24:56.636Z,62.53
2019-01-16T02:27:39.829Z,62.22
2019-01-16T02:30:23.354Z,62.62
2019-01-16T02:32:58.385Z,62.88
2019-01-16T02:35:33.253Z,62.57
2019-01-16T02:38:10.364Z,62.92
2019-01-16T02:40:41.851Z,62.85
2019-01-16T02:43:16.034Z,63.17
2019-01-16T02:45:50.136Z,63.31
2019-01-16T02:48:21.457Z,63.60
2019-01-16T02:51:01.715Z,64.11
2019-01-16T02:53:34.573Z,65.16
2019-01-16T02:56:11.662Z,65.09
2019-01-16T02:59:01.093Z,64.80
2019-01-16T06:50:24.635Z,76.80
2019-01-16T06:53:10.841Z,76.29
2019-01-16T06:55:57.477Z,75.41
2019-01-16T06:58:35.191Z,74.27
2019-01-16T07:01:17.076Z,74.99
2019-01-16T07:04:08.808Z,77.29
2019-01-16T07:06:58.553Z,76.83
2019-01-16T07:09:29.882Z,75.77
2019-01-16T07:12:21.145Z,74.51
2019-01-16T07:15:14.077Z,74.86
2019-01-16T07:17:48.453Z,74.62
2019-01-16T07:20:28.502Z,73.79
2019-01-16T07:22:59.911Z,74.13
2019-01-16T07:25:40.022Z,72.82
2019-01-16T07:28:14.407Z,73.92
2019-01-16T07:30:54.460Z,71.46
2019-01-16T07:33:41.886Z,72.07
2019-01-16T07:36:13.193Z,73.20
2019-01-16T07:38:53.636Z,71.98
2019-01-16T07:41:28.523Z,71.46
2019-01-16T07:44:18.370Z,71.18
2019-01-16T07:46:55.030Z,71.41
2019-01-16T07:49:30.326Z,71.65
2019-01-16T07:52:07.764Z,71.36
2019-01-16T07:54:55.505Z,71.26
2019-01-16T07:57:33.042Z,70.36
2019-01-16T08:00:04.505Z,70.56
2019-01-16T08:02:54.578Z,70.91
2019-01-16T08:05:25.941Z,71.77
2019-01-16T08:07:57.266Z,70.56
2019-01-16T08:10:42.029Z,70.95
2019-01-16T08:13:25.606Z,67.88
2019-01-16T08:16:14.843Z,69.86
2019-01-16T08:18:46.159Z,70.85
2019-01-16T08:21:35.004Z,71.36
2019-01-16T08:24:10.223Z,70.57
2019-01-16T08:27:05.301Z,70.64
2019-01-16T08:29:53.750Z,71.04
2019-01-16T08:32:35.265Z,70.99
2019-01-16T08:35:10.545Z,70.99
2019-01-16T08:37:43.217Z,70.25
2019-01-16T08:40:26.619Z,70.78
2019-01-16T08:42:58.089Z,69.94
2019-01-16T08:45:38.384Z,72.43
2019-01-16T08:48:18.837Z,70.66
2019-01-16T08:50:56.218Z,71.47
2019-01-16T08:53:44.220Z,71.50
2019-01-16T08:56:18.275Z,73.44
2019-01-16T08:59:05.678Z,73.07
2019-01-16T09:01:54.899Z,69.92
2019-01-16T09:04:27.267Z,71.15
2019-01-16T09:07:04.229Z,70.98
2019-01-16T09:09:41.532Z,69.00
2019-01-16T09:12:16.139Z,70.72
2019-01-16T09:14:56.674Z,70.87
2019-01-16T09:17:30.854Z,68.49
2019-01-16T09:20:02.621Z,68.34
2019-01-16T09:22:34.631Z,70.45
2019-01-16T09:25:17.511Z,68.96
2019-01-16T09:28:05.005Z,68.92
2019-01-16T09:30:45.260Z,68.29
2019-01-16T09:33:25.978Z,68.41
2019-01-16T09:36:00.075Z,68.21
2019-01-16T09:38:31.428Z,68.75
2019-01-16T09:41:09.579Z,67.30
2019-01-16T09:43:41.004Z,67.35
2019-01-16T09:46:27.550Z,66.43
2019-01-16T09:48:58.883Z,66.95
2019-01-16T09:51:34.780Z,67.78
2019-01-16T09:54:15.776Z,66.58
2019-01-16T09:56:49.025Z,66.03
2019-01-16T09:59:24.021Z,66.02
2019-01-16T10:02:01.351Z,68.67
2019-01-16T10:04:35.690Z,69.54
2019-01-16T10:07:16.692Z,71.27
2019-01-16T10:09:54.997Z,69.23
2019-01-16T10:12:44.125Z,66.98
2019-01-16T10:15:34.850Z,65.88
2019-01-16T10:18:09.379Z,66.92
2019-01-16T10:20:46.125Z,67.80
2019-01-16T10:23:28.921Z,66.83
2019-01-16T10:26:08.945Z,66.93
2019-01-16T10:28:58.344Z,65.70
2019-01-16T10:31:45.899Z,67.24
2019-01-16T10:34:27.572Z,68.27
2019-01-16T10:37:05.959Z,67.80
2019-01-16T10:39:40.672Z,65.78
2019-01-16T10:42:26.277Z,65.07
2019-01-16T10:44:57.718Z,67.37
2019-01-16T10:47:29.031Z,63.65
2019-01-16T10:50:06.278Z,63.63
2019-01-16T10:52:49.693Z,64.02
2019-01-16T10:55:26.584Z,64.34
2019-01-16T10:58:14.010Z,64.00
2019-01-16T11:00:48.378Z,63.02
2019-01-16T11:03:31.011Z,62.50
2019-01-16T11:06:03.012Z,62.48
2019-01-16T11:08:43.398Z,62.06
2019-01-16T11:11:17.978Z,62.83
2019-01-16T11:13:52.128Z,64.53
2019-01-16T11:16:34.618Z,64.41
2019-01-16T11:19:12.093Z,66.04
2019-01-16T11:22:02.650Z,65.87
2019-01-16T11:24:43.944Z,64.35
2019-01-16T11:27:18.367Z,62.57
2019-01-16T11:29:49.690Z,62.20
2019-01-16T11:32:26.975Z,62.10
2019-01-16T11:35:07.171Z,61.38
2019-01-16T11:37:41.586Z,60.91
2019-01-16T11:40:31.111Z,59.35
2019-01-16T11:43:18.623Z,60.84
2019-01-16T11:46:07.343Z,63.55
2019-01-16T11:48:53.796Z,66.13
2019-01-16T11:51:38.416Z,65.44
2019-01-16T11:54:12.820Z,64.57
2019-01-16T11:56:47.039Z,65.42
2019-01-16T11:59:19.757Z,66.55
2019-01-16T12:02:06.855Z,67.12
2019-01-16T12:04:50.120Z,67.82
2019-01-16T12:07:27.406Z,64.25
2019-01-16T12:09:58.818Z,64.20
2019-01-16T12:12:42.087Z,62.84
2019-01-16T12:15:16.040Z,65.52
2019-01-16T12:17:52.091Z,64.07
2019-01-16T12:20:27.861Z,65.46
2019-01-16T12:22:59.290Z,66.37
2019-01-16T12:25:36.674Z,65.00
2019-01-16T12:28:08.155Z,65.80
2019-01-16T12:30:48.467Z,65.43
2019-01-16T12:33:22.375Z,62.38
2019-01-16T12:36:08.638Z,62.07
2019-01-16T12:38:40.043Z,62.65
2019-01-16T12:41:11.479Z,64.06
2019-01-16T12:43:59.095Z,63.35
2019-01-16T12:46:48.500Z,64.74
2019-01-16T12:49:38.447Z,67.19
2019-01-16T12:52:14.819Z,68.00
2019-01-16T12:54:59.145Z,67.65
2019-01-16T12:57:30.640Z,67.92
2019-01-16T13:00:04.735Z,67.16
2019-01-16T13:02:41.355Z,65.25
2019-01-16T13:05:15.564Z,67.76
2019-01-16T13:07:55.845Z,69.21
2019-01-16T13:10:39.093Z,69.21
2019-01-16T13:13:16.525Z,69.64
2019-01-16T13:15:59.946Z,69.52
2019-01-16T13:18:43.596Z,70.92
2019-01-16T13:21:24.054Z,70.01
2019-01-16T13:23:55.574Z,68.47
2019-01-16T13:26:46.533Z,69.87
2019-01-16T13:29:21.330Z,69.76
2019-01-16T13:32:06.486Z,71.64
2019-01-16T13:34:42.652Z,71.57
2019-01-16T13:37:23.033Z,71.65
2019-01-16T13:40:10.163Z,71.26
2019-01-16T13:42:46.093Z,71.94
2019-01-16T13:45:37.343Z,71.96
2019-01-16T13:48:11.725Z,72.28
2019-01-16T13:50:46.224Z,72.43
2019-01-16T13:53:17.606Z,72.78
2019-01-16T13:55:52.196Z,72.60
2019-01-16T13:58:38.651Z,73.52
2019-01-16T14:01:25.628Z,74.18
2019-01-16T14:04:13.035Z,74.07
2019-01-16T14:06:45.647Z,73.77
2019-01-16T14:09:26.703Z,74.07
2019-01-16T14:12:15.880Z,73.79
2019-01-16T14:14:50.025Z,73.02
2019-01-16T14:17:35.607Z,72.83
2019-01-16T14:23:19.148Z,72.77
2019-01-16T14:25:53.543Z,72.47
2019-01-16T14:28:28.439Z,72.27
2019-01-16T14:30:59.768Z,69.96
2019-01-16T14:33:32.232Z,70.32
2019-01-16T14:36:07.558Z,70.86
2019-01-16T14:38:44.737Z,70.77
2019-01-16T14:41:35.016Z,71.43
2019-01-16T14:44:18.981Z,72.00
2019-01-16T14:46:52.203Z,72.10
2019-01-16T14:49:34.860Z,72.42
2019-01-16T14:52:13.429Z,72.85
2019-01-16T14:54:54.630Z,73.12
2019-01-16T14:57:42.140Z,72.70
2019-01-16T15:00:24.041Z,72.36
2019-01-16T15:03:01.553Z,72.22
2019-01-16T15:05:49.914Z,71.25
2019-01-16T15:08:39.999Z,71.44
2019-01-16T15:11:27.676Z,72.04
2019-01-16T15:13:59.809Z,72.39
2019-01-16T15:16:53.941Z,70.73
2019-01-16T15:19:34.255Z,70.55
2019-01-16T15:22:12.742Z,70.14
2019-01-16T15:24:58.502Z,69.83
2019-01-16T15:27:29.980Z,70.45
2019-01-16T15:30:01.480Z,71.63
2019-01-16T15:32:32.987Z,72.24
2019-01-16T15:35:07.096Z,73.26
2019-01-16T15:37:41.154Z,74.53
2019-01-16T15:40:30.539Z,75.58
2019-01-16T15:43:01.940Z,76.41
2019-01-16T15:45:48.106Z,77.00
2019-01-16T15:48:19.604Z,76.83
2019-01-16T15:51:15.788Z,77.05
2019-01-16T15:53:50.370Z,77.55
2019-01-16T15:56:26.999Z,78.01
2019-01-16T15:59:01.313Z,77.91
2019-01-16T16:01:32.632Z,77.88
2019-01-16T16:04:04.240Z,78.56
2019-01-16T16:06:52.166Z,78.02
2019-01-16T16:09:25.344Z,78.06
2019-01-16T16:12:10.287Z,78.28
2019-01-16T16:14:50.354Z,78.41
2019-01-16T16:17:40.435Z,79.19
2019-01-16T16:20:24.659Z,77.84
2019-01-16T16:22:56.000Z,77.77
2019-01-16T16:25:43.406Z,77.74
2019-01-16T16:28:18.005Z,78.15
2019-01-16T16:30:49.586Z,78.79
2019-01-16T16:33:28.274Z,79.78
2019-01-16T16:36:08.899Z,80.48
2019-01-16T16:38:44.838Z,80.83
2019-01-16T16:41:19.327Z,82.11
2019-01-16T16:44:03.813Z,82.53
2019-01-16T16:46:37.966Z,83.03
2019-01-16T16:49:21.375Z,83.71
2019-01-16T16:51:58.739Z,84.49
2019-01-16T16:54:33.615Z,84.90
2019-01-16T17:00:40.399Z,85.78
2019-01-16T17:03:11.843Z,86.36
2019-01-16T17:05:46.237Z,86.57
2019-01-16T17:08:27.360Z,87.09
2019-01-16T17:11:07.293Z,87.46
2019-01-16T17:16:54.969Z,88.32
2019-01-16T17:19:29.515Z,88.61
2019-01-16T17:22:07.805Z,88.49
2019-01-16T17:24:53.630Z,88.54
2019-01-16T17:27:27.759Z,89.19
2019-01-16T17:30:02.172Z,89.02
2019-01-16T17:40:33.146Z,89.94
2019-01-16T17:43:07.821Z,90.31
2019-01-16T17:52:19.277Z,90.33
2019-01-16T17:55:02.787Z,90.25
2019-01-16T17:57:49.251Z,90.42
2019-01-16T18:00:24.783Z,90.40
2019-01-16T18:03:15.761Z,90.11
2019-01-16T18:05:54.738Z,90.36
2019-01-16T18:08:43.452Z,90.29
2019-01-16T18:11:30.842Z,90.75
2019-01-16T18:14:05.219Z,91.29
2019-01-16T18:16:52.917Z,91.67
2019-01-16T18:19:26.599Z,91.78
2019-01-16T18:22:00.799Z,91.92
2019-01-16T18:24:32.802Z,91.64
2019-01-16T18:27:13.162Z,91.61
2019-01-16T18:30:01.012Z,91.97
2019-01-16T18:32:35.337Z,91.45
2019-01-16T18:35:26.341Z,91.81
2019-01-16T18:38:13.632Z,92.43
2019-01-16T18:40:45.576Z,92.73
2019-01-16T18:43:20.084Z,92.73
2019-01-16T18:46:00.735Z,93.28
2019-01-16T18:48:32.201Z,93.05
2019-01-16T18:51:18.654Z,93.21
2019-01-16T18:53:53.108Z,93.21
2019-01-16T18:56:40.869Z,92.50
2019-01-16T18:59:12.350Z,92.32
2019-01-16T19:01:53.114Z,92.28
2019-01-16T19:04:24.445Z,92.67
2019-01-16T19:07:18.535Z,92.58
2019-01-16T19:09:50.310Z,92.68
2019-01-16T19:12:42.323Z,92.83
2019-01-16T19:15:16.091Z,92.40
2019-01-16T19:18:05.477Z,92.90
2019-01-16T19:20:40.483Z,92.94
2019-01-16T19:23:24.240Z,92.90
2019-01-16T19:26:11.722Z,92.78
2019-01-16T19:28:48.899Z,92.41
2019-01-16T19:31:20.383Z,92.64
2019-01-16T19:33:55.181Z,92.52
2019-01-16T19:36:26.607Z,92.52
2019-01-16T19:39:07.341Z,92.86
2019-01-16T19:41:38.786Z,92.95
2019-01-16T19:44:26.487Z,92.97
2019-01-16T19:47:01.471Z,92.60
2019-01-16T19:49:40.592Z,92.49
2019-01-16T19:52:15.159Z,92.76
2019-01-16T19:55:03.762Z,93.42
2019-01-16T19:57:45.302Z,93.22
2019-01-16T20:00:28.060Z,93.76
2019-01-16T20:03:10.623Z,94.15
2019-01-16T20:05:49.111Z,94.17
2019-01-16T20:08:20.577Z,94.19
2019-01-16T20:11:03.422Z,94.34
2019-01-16T20:13:37.679Z,94.50
2019-01-16T20:16:26.124Z,95.04
2019-01-16T20:19:13.682Z,95.29
2019-01-16T20:21:48.243Z,95.65
2019-01-16T20:24:21.631Z,95.54
2019-01-16T20:27:12.807Z,95.29
2019-01-16T20:30:01.245Z,95.27
2019-01-16T20:32:38.846Z,94.95
2019-01-16T20:35:16.294Z,94.62
2019-01-16T20:38:03.871Z,94.44
2019-01-16T20:40:41.166Z,94.46
2019-01-16T20:43:12.528Z,94.70
2019-01-16T20:45:59.060Z,94.41
2019-01-16T20:48:30.509Z,94.25
2019-01-16T20:51:01.835Z,94.22
2019-01-16T20:53:40.723Z,94.21
2019-01-16T20:56:15.274Z,94.47
2019-01-16T20:58:53.135Z,94.46
2019-01-16T21:01:24.458Z,93.90
2019-01-16T21:04:01.783Z,93.93
2019-01-16T21:06:50.102Z,93.88
2019-01-16T21:09:24.764Z,94.68
2019-01-16T21:12:01.842Z,95.98
2019-01-16T21:14:41.329Z,97.65
2019-01-16T21:17:19.706Z,97.62
2019-01-16T21:19:52.652Z,98.49
2019-01-16T21:22:42.635Z,97.18
2019-01-16T21:25:32.206Z,97.50
2019-01-16T21:28:06.501Z,97.31
2019-01-16T21:30:49.910Z,95.95
2019-01-16T21:33:37.796Z,95.78
2019-01-16T21:36:18.061Z,95.44
2019-01-16T21:38:49.372Z,95.91
2019-01-16T21:41:21.998Z,95.84
2019-01-16T21:43:59.102Z,96.86
2019-01-16T21:46:30.529Z,97.32
2019-01-16T21:49:01.893Z,97.24
2019-01-16T21:51:33.889Z,97.27
2019-01-16T21:54:05.402Z,97.12
2019-01-16T21:56:38.021Z,97.17
2019-01-16T21:59:12.083Z,96.16
2019-01-16T22:01:49.954Z,96.08
2019-01-16T22:04:30.867Z,95.83
2019-01-16T22:07:22.300Z,96.16
2019-01-16T22:09:59.520Z,97.08
2019-01-16T22:12:48.514Z,97.00
2019-01-16T22:15:28.608Z,97.44
2019-01-16T22:18:03.663Z,97.31
2019-01-16T22:20:35.437Z,96.64
2019-01-16T22:23:07.714Z,96.66
2019-01-16T22:25:48.665Z,96.89
2019-01-16T22:28:29.099Z,98.33
2019-01-16T22:31:06.195Z,98.46
2019-01-16T22:33:46.849Z,98.81
2019-01-16T22:36:18.171Z,98.24
2019-01-16T22:38:51.168Z,98.21
2019-01-16T22:41:25.561Z,98.38
2019-01-16T22:43:57.421Z,98.31
2019-01-16T22:46:33.453Z,98.39
2019-01-16T22:49:07.185Z,98.46
2019-01-16T22:51:46.195Z,98.58
2019-01-16T22:54:18.224Z,98.12
2019-01-16T22:57:07.667Z,97.14
2019-01-16T22:59:46.512Z,97.23
2019-01-16T23:02:27.546Z,97.62
2019-01-16T23:05:02.817Z,97.17
2019-01-16T23:07:50.844Z,96.88
2019-01-16T23:10:38.243Z,97.17
2019-01-16T23:13:09.599Z,97.24
2019-01-16T23:15:51.955Z,96.92
2019-01-16T23:18:32.989Z,96.33
2019-01-16T23:21:20.837Z,95.04
2019-01-16T23:23:55.935Z,95.44
2019-01-16T23:26:36.059Z,95.29
2019-01-16T23:29:21.649Z,95.56
2019-01-16T23:31:57.611Z,95.92
2019-01-16T23:34:45.215Z,96.88
2019-01-16T23:37:23.305Z,97.37
2019-01-16T23:40:04.657Z,97.85
2019-01-16T23:43:03.825Z,97.49
2019-01-16T23:45:43.734Z,96.88
2019-01-16T23:48:43.057Z,97.22
2019-01-16T23:51:40.643Z,96.39
2019-01-16T23:54:18.532Z,96.30
2019-01-16T23:57:21.138Z,95.72
